メインページ
METAR-TAF:

METAR-TAF

空港 :

クライストチャーチ国際空港

クライストチャーチ, ニュージーランド

緯度: 43-29S, 経度: 172-33E, 海抜: 38m

現時点の気象観測

当レポートは32分前の14:00(UTC)に作成
西/南西の風 12kt
気温 7°C
湿度 87%
気圧 1010 hPa
視程10km以上

METAR: NZCH 251400Z AUTO 24012KT 9999 SCT031/// BKN038/// 07/05 Q1010 NOSIG

時間: 02:32 (14:32 UTC)

予報

当レポートは3時間26分前の11:06(UTC)に作成
予報は25日の 12時(UTC)から 26日の 12時(UTC)まで有効
西/南西の風 12kt
視程10km以上
高度3000ftの千切れ雲あり
弱いにわか雨
25日の 20時(UTC)から 25日の 22時(UTC)まで徐々に
西/北西の風 5kt
26日の 0100時(UTC)から
東/北東の風 10kt
視程10km以上
高度4000ftの雲はほとんどない
26日の 1000時(UTC)から
南西の風 10kt
視程10km以上
高度3000ftの千切れ雲あり
弱いにわか雨

TAF: NZCH 251106Z 2512/2612 24012KT 9999 -SHRA BKN030 BECMG 2520/2522 30005KT FM260100 06010KT 9999 FEW040 FM261000 22010KT 9999 -SHRA BKN030

4,000以上の空港の気象観測と天気予報(METAR報とTAF報)

利用可能な観測所は地図上に黄色い丸と赤い丸で示す。

丸の上にカーソルを重ねると観測所名を参照できる。

次にクリックすると気象観測と天気予報を参照できる。

マップの切り替え:黒色「×」印の緑ボタンをクリックして拡大、「-」印の緑ボタンをクリックして縮小、緑色の三角印をクリックして隣りの地図に切り替え


METAR-TAF: